sensor_id;sensor_type;location;lat;lon;timestamp;P1;durP1;ratioP1;P2;durP2;ratioP2
54875;SDS011;40764;48.472;8.166;2023-04-01T00:05:30;9.47;;;2.00;;
54875;SDS011;40764;48.472;8.166;2023-04-01T00:11:30;3.67;;;0.67;;
54875;SDS011;40764;48.472;8.166;2023-04-01T00:17:32;3.53;;;1.00;;
54875;SDS011;40764;48.472;8.166;2023-04-01T00:23:32;7.43;;;1.17;;
54875;SDS011;40764;48.472;8.166;2023-04-01T00:29:36;5.10;;;1.30;;
54875;SDS011;40764;48.472;8.166;2023-04-01T00:35:36;3.63;;;0.60;;
54875;SDS011;40764;48.472;8.166;2023-04-01T00:41:37;4.43;;;0.93;;
54875;SDS011;40764;48.472;8.166;2023-04-01T00:47:38;5.80;;;1.07;;
54875;SDS011;40764;48.472;8.166;2023-04-01T00:53:40;5.83;;;0.77;;
54875;SDS011;40764;48.472;8.166;2023-04-01T00:59:44;1.15;;;0.60;;
54875;SDS011;40764;48.472;8.166;2023-04-01T01:06:09;2.75;;;0.80;;
54875;SDS011;40764;48.472;8.166;2023-04-01T01:13:25;2.42;;;0.80;;
54875;SDS011;40764;48.472;8.166;2023-04-01T01:19:08;1.10;;;0.40;;
54875;SDS011;40764;48.472;8.166;2023-04-01T01:32:41;4.88;;;0.98;;
54875;SDS011;40764;48.472;8.166;2023-04-01T01:38:32;1.17;;;0.20;;
54875;SDS011;40764;48.472;8.166;2023-04-01T01:44:35;4.25;;;1.85;;
54875;SDS011;40764;48.472;8.166;2023-04-01T01:50:37;0.55;;;0.30;;
54875;SDS011;40764;48.472;8.166;2023-04-01T01:56:41;2.58;;;0.40;;
54875;SDS011;40764;48.472;8.166;2023-04-01T02:02:46;4.07;;;0.60;;
54875;SDS011;40764;48.472;8.166;2023-04-01T02:08:55;1.23;;;0.38;;
54875;SDS011;40764;48.472;8.166;2023-04-01T02:15:03;2.13;;;0.60;;
54875;SDS011;40764;48.472;8.166;2023-04-01T02:21:08;1.65;;;0.28;;
54875;SDS011;40764;48.472;8.166;2023-04-01T02:27:09;1.13;;;0.40;;
54875;SDS011;40764;48.472;8.166;2023-04-01T02:33:10;5.00;;;0.40;;
54875;SDS011;40764;48.472;8.166;2023-04-01T02:39:11;0.83;;;0.40;;
54875;SDS011;40764;48.472;8.166;2023-04-01T02:45:13;1.95;;;0.68;;
54875;SDS011;40764;48.472;8.166;2023-04-01T02:51:14;2.93;;;0.20;;
54875;SDS011;40764;48.472;8.166;2023-04-01T02:57:25;1.48;;;0.45;;
54875;SDS011;40764;48.472;8.166;2023-04-01T03:03:25;1.75;;;0.30;;
54875;SDS011;40764;48.472;8.166;2023-04-01T03:09:26;2.10;;;0.45;;
54875;SDS011;40764;48.472;8.166;2023-04-01T03:15:26;5.63;;;0.68;;
54875;SDS011;40764;48.472;8.166;2023-04-01T03:21:26;9.77;;;0.77;;
54875;SDS011;40764;48.472;8.166;2023-04-01T03:27:27;4.63;;;1.07;;
54875;SDS011;40764;48.472;8.166;2023-04-01T03:33:34;3.25;;;0.85;;
54875;SDS011;40764;48.472;8.166;2023-04-01T03:39:34;4.45;;;1.00;;
54875;SDS011;40764;48.472;8.166;2023-04-01T03:45:35;8.30;;;1.23;;
54875;SDS011;40764;48.472;8.166;2023-04-01T03:51:43;9.35;;;1.20;;
54875;SDS011;40764;48.472;8.166;2023-04-01T03:57:44;9.30;;;1.27;;
54875;SDS011;40764;48.472;8.166;2023-04-01T04:03:44;8.85;;;1.70;;
54875;SDS011;40764;48.472;8.166;2023-04-01T04:09:45;6.53;;;1.37;;
54875;SDS011;40764;48.472;8.166;2023-04-01T04:15:46;7.33;;;0.80;;
54875;SDS011;40764;48.472;8.166;2023-04-01T04:21:46;2.95;;;0.73;;
54875;SDS011;40764;48.472;8.166;2023-04-01T04:27:46;5.80;;;0.82;;
54875;SDS011;40764;48.472;8.166;2023-04-01T04:33:47;2.80;;;0.60;;
54875;SDS011;40764;48.472;8.166;2023-04-01T04:39:48;7.80;;;1.70;;
54875;SDS011;40764;48.472;8.166;2023-04-01T04:45:48;2.90;;;0.55;;
54875;SDS011;40764;48.472;8.166;2023-04-01T04:51:48;2.43;;;0.70;;
54875;SDS011;40764;48.472;8.166;2023-04-01T04:57:49;6.40;;;1.00;;
54875;SDS011;40764;48.472;8.166;2023-04-01T05:03:50;7.87;;;1.50;;
54875;SDS011;40764;48.472;8.166;2023-04-01T05:09:51;5.00;;;1.30;;
54875;SDS011;40764;48.472;8.166;2023-04-01T05:15:51;6.13;;;1.55;;
54875;SDS011;40764;48.472;8.166;2023-04-01T05:21:52;5.35;;;0.63;;
54875;SDS011;40764;48.472;8.166;2023-04-01T05:27:52;7.33;;;1.87;;
54875;SDS011;40764;48.472;8.166;2023-04-01T05:33:53;5.03;;;1.20;;
54875;SDS011;40764;48.472;8.166;2023-04-01T05:39:54;7.10;;;1.10;;
54875;SDS011;40764;48.472;8.166;2023-04-01T05:45:54;9.35;;;1.10;;
54875;SDS011;40764;48.472;8.166;2023-04-01T05:51:55;6.43;;;1.17;;
54875;SDS011;40764;48.472;8.166;2023-04-01T05:57:55;9.00;;;2.30;;
54875;SDS011;40764;48.472;8.166;2023-04-01T06:03:56;3.87;;;1.37;;
54875;SDS011;40764;48.472;8.166;2023-04-01T06:09:56;6.00;;;1.03;;
54875;SDS011;40764;48.472;8.166;2023-04-01T06:16:04;5.37;;;1.40;;
54875;SDS011;40764;48.472;8.166;2023-04-01T06:22:18;11.05;;;2.50;;
54875;SDS011;40764;48.472;8.166;2023-04-01T07:01:02;5.72;;;1.52;;
54875;SDS011;40764;48.472;8.166;2023-04-01T07:13:15;3.25;;;1.42;;
54875;SDS011;40764;48.472;8.166;2023-04-01T07:19:23;10.32;;;1.42;;
54875;SDS011;40764;48.472;8.166;2023-04-01T07:25:29;7.57;;;1.42;;
54875;SDS011;40764;48.472;8.166;2023-04-01T07:50:18;9.07;;;2.00;;
54875;SDS011;40764;48.472;8.166;2023-04-01T07:56:31;8.48;;;1.60;;
54875;SDS011;40764;48.472;8.166;2023-04-01T08:03:11;11.27;;;2.13;;
54875;SDS011;40764;48.472;8.166;2023-04-01T08:09:24;8.43;;;2.10;;
54875;SDS011;40764;48.472;8.166;2023-04-01T08:15:38;6.13;;;1.48;;
54875;SDS011;40764;48.472;8.166;2023-04-01T08:21:51;4.85;;;1.27;;
54875;SDS011;40764;48.472;8.166;2023-04-01T08:34:10;3.00;;;1.70;;
54875;SDS011;40764;48.472;8.166;2023-04-01T11:00:11;0.93;;;0.40;;
54875;SDS011;40764;48.472;8.166;2023-04-01T11:38:52;1.48;;;0.57;;
54875;SDS011;40764;48.472;8.166;2023-04-01T11:45:15;0.95;;;0.38;;
54875;SDS011;40764;48.472;8.166;2023-04-01T11:57:46;1.75;;;0.30;;
54875;SDS011;40764;48.472;8.166;2023-04-01T12:10:19;1.23;;;0.38;;
54875;SDS011;40764;48.472;8.166;2023-04-01T12:22:53;1.42;;;0.75;;
54875;SDS011;40764;48.472;8.166;2023-04-01T13:20:17;0.87;;;0.53;;
54875;SDS011;40764;48.472;8.166;2023-04-01T13:45:02;5.00;;;1.50;;
54875;SDS011;40764;48.472;8.166;2023-04-01T14:23:02;3.05;;;0.68;;
54875;SDS011;40764;48.472;8.166;2023-04-01T14:41:45;5.60;;;3.70;;
54875;SDS011;40764;48.472;8.166;2023-04-01T14:48:04;8.20;;;3.53;;
54875;SDS011;40764;48.472;8.166;2023-04-01T14:54:18;2.53;;;1.70;;
54875;SDS011;40764;48.472;8.166;2023-04-01T15:00:37;8.68;;;2.97;;
54875;SDS011;40764;48.472;8.166;2023-04-01T15:20:02;10.57;;;3.33;;
54875;SDS011;40764;48.472;8.166;2023-04-01T15:51:23;10.07;;;2.63;;
54875;SDS011;40764;48.472;8.166;2023-04-01T16:09:53;22.00;;;7.57;;
54875;SDS011;40764;48.472;8.166;2023-04-01T16:15:59;6.43;;;2.92;;
54875;SDS011;40764;48.472;8.166;2023-04-01T16:22:23;20.67;;;5.15;;
54875;SDS011;40764;48.472;8.166;2023-04-01T16:28:28;10.43;;;3.20;;
54875;SDS011;40764;48.472;8.166;2023-04-01T16:47:06;3.78;;;1.90;;
54875;SDS011;40764;48.472;8.166;2023-04-01T16:59:14;4.45;;;0.82;;
54875;SDS011;40764;48.472;8.166;2023-04-01T17:05:21;4.32;;;1.50;;
54875;SDS011;40764;48.472;8.166;2023-04-01T17:18:23;2.40;;;0.98;;
54875;SDS011;40764;48.472;8.166;2023-04-01T17:49:39;2.30;;;1.20;;
54875;SDS011;40764;48.472;8.166;2023-04-01T18:15:05;5.18;;;2.70;;
54875;SDS011;40764;48.472;8.166;2023-04-01T18:21:33;6.25;;;2.90;;
54875;SDS011;40764;48.472;8.166;2023-04-01T18:27:44;26.38;;;14.57;;
54875;SDS011;40764;48.472;8.166;2023-04-01T18:39:54;20.67;;;10.48;;
54875;SDS011;40764;48.472;8.166;2023-04-01T18:46:00;8.25;;;4.30;;
54875;SDS011;40764;48.472;8.166;2023-04-01T18:52:20;9.48;;;4.72;;
54875;SDS011;40764;48.472;8.166;2023-04-01T18:58:28;20.50;;;8.43;;
54875;SDS011;40764;48.472;8.166;2023-04-01T19:17:14;20.52;;;8.38;;
54875;SDS011;40764;48.472;8.166;2023-04-01T19:48:20;8.73;;;4.60;;
54875;SDS011;40764;48.472;8.166;2023-04-01T19:54:47;3.78;;;2.30;;
54875;SDS011;40764;48.472;8.166;2023-04-01T20:01:07;1.17;;;0.70;;
54875;SDS011;40764;48.472;8.166;2023-04-01T20:13:48;3.35;;;0.70;;
54875;SDS011;40764;48.472;8.166;2023-04-01T20:19:58;4.25;;;0.85;;
54875;SDS011;40764;48.472;8.166;2023-04-01T20:26:02;3.55;;;0.70;;
54875;SDS011;40764;48.472;8.166;2023-04-01T20:51:32;3.00;;;0.95;;
54875;SDS011;40764;48.472;8.166;2023-04-01T20:57:59;51.00;;;11.85;;
54875;SDS011;40764;48.472;8.166;2023-04-01T21:16:46;16.10;;;7.80;;
54875;SDS011;40764;48.472;8.166;2023-04-01T21:48:23;4.88;;;1.77;;
54875;SDS011;40764;48.472;8.166;2023-04-01T21:55:03;2.35;;;1.38;;
54875;SDS011;40764;48.472;8.166;2023-04-01T22:26:39;10.18;;;2.50;;
54875;SDS011;40764;48.472;8.166;2023-04-01T22:32:49;6.13;;;2.63;;
54875;SDS011;40764;48.472;8.166;2023-04-01T22:38:56;5.32;;;2.47;;
54875;SDS011;40764;48.472;8.166;2023-04-01T22:51:20;4.10;;;2.28;;
54875;SDS011;40764;48.472;8.166;2023-04-01T22:57:35;3.25;;;1.80;;
54875;SDS011;40764;48.472;8.166;2023-04-01T23:03:49;3.20;;;1.23;;
54875;SDS011;40764;48.472;8.166;2023-04-01T23:09:51;5.15;;;1.70;;
54875;SDS011;40764;48.472;8.166;2023-04-01T23:15:56;3.13;;;1.83;;
54875;SDS011;40764;48.472;8.166;2023-04-01T23:22:03;1.73;;;1.35;;
54875;SDS011;40764;48.472;8.166;2023-04-01T23:34:48;4.25;;;1.02;;
54875;SDS011;40764;48.472;8.166;2023-04-01T23:40:50;2.95;;;0.85;;
54875;SDS011;40764;48.472;8.166;2023-04-01T23:46:53;4.72;;;0.80;;
54875;SDS011;40764;48.472;8.166;2023-04-01T23:53:02;0.73;;;0.55;;
54875;SDS011;40764;48.472;8.166;2023-04-01T23:59:38;2.25;;;0.80;;
